sensor_id;sensor_type;location;lat;lon;timestamp;temperature;humidity
17715;DHT22;8977;50.902;4.314;2023-06-22T00:01:17;24.50;99.90
17715;DHT22;8977;50.902;4.314;2023-06-22T00:03:44;24.50;99.90
17715;DHT22;8977;50.902;4.314;2023-06-22T00:06:10;24.50;99.90
17715;DHT22;8977;50.902;4.314;2023-06-22T00:08:37;24.50;99.90
17715;DHT22;8977;50.902;4.314;2023-06-22T00:11:04;24.40;99.90
17715;DHT22;8977;50.902;4.314;2023-06-22T00:13:32;24.40;99.90
17715;DHT22;8977;50.902;4.314;2023-06-22T00:15:59;24.40;99.90
17715;DHT22;8977;50.902;4.314;2023-06-22T00:18:26;24.40;99.90
17715;DHT22;8977;50.902;4.314;2023-06-22T00:23:23;24.40;99.90
17715;DHT22;8977;50.902;4.314;2023-06-22T00:25:51;24.40;99.90
17715;DHT22;8977;50.902;4.314;2023-06-22T00:28:17;24.40;99.90
17715;DHT22;8977;50.902;4.314;2023-06-22T00:30:46;24.40;99.90
17715;DHT22;8977;50.902;4.314;2023-06-22T00:33:13;24.40;99.90
17715;DHT22;8977;50.902;4.314;2023-06-22T00:35:42;24.40;99.90
17715;DHT22;8977;50.902;4.314;2023-06-22T00:38:11;24.40;99.90
17715;DHT22;8977;50.902;4.314;2023-06-22T00:40:39;24.40;99.90
17715;DHT22;8977;50.902;4.314;2023-06-22T00:43:06;24.40;99.90
17715;DHT22;8977;50.902;4.314;2023-06-22T00:45:33;24.30;99.90
17715;DHT22;8977;50.902;4.314;2023-06-22T00:48:02;24.30;99.90
17715;DHT22;8977;50.902;4.314;2023-06-22T00:50:32;24.30;99.90
17715;DHT22;8977;50.902;4.314;2023-06-22T00:53:01;24.30;99.90
17715;DHT22;8977;50.902;4.314;2023-06-22T00:55:36;24.20;99.90
17715;DHT22;8977;50.902;4.314;2023-06-22T00:58:04;24.20;99.90
17715;DHT22;8977;50.902;4.314;2023-06-22T01:00:35;24.20;99.90
17715;DHT22;8977;50.902;4.314;2023-06-22T01:03:06;24.20;99.90
17715;DHT22;8977;50.902;4.314;2023-06-22T01:05:35;24.20;99.90
17715;DHT22;8977;50.902;4.314;2023-06-22T01:08:12;24.20;99.90
17715;DHT22;8977;50.902;4.314;2023-06-22T01:10:45;24.20;99.90
17715;DHT22;8977;50.902;4.314;2023-06-22T01:13:21;24.20;99.90
17715;DHT22;8977;50.902;4.314;2023-06-22T01:15:55;24.20;99.90
17715;DHT22;8977;50.902;4.314;2023-06-22T01:18:25;24.20;99.90
17715;DHT22;8977;50.902;4.314;2023-06-22T01:20:56;24.20;99.90
17715;DHT22;8977;50.902;4.314;2023-06-22T01:23:29;24.20;99.90
17715;DHT22;8977;50.902;4.314;2023-06-22T01:26:05;24.20;99.90
17715;DHT22;8977;50.902;4.314;2023-06-22T01:28:43;24.20;99.90
17715;DHT22;8977;50.902;4.314;2023-06-22T01:31:14;24.20;99.90
17715;DHT22;8977;50.902;4.314;2023-06-22T01:33:45;24.20;99.90
17715;DHT22;8977;50.902;4.314;2023-06-22T01:36:14;24.20;99.90
17715;DHT22;8977;50.902;4.314;2023-06-22T01:38:44;24.20;99.90
17715;DHT22;8977;50.902;4.314;2023-06-22T01:41:12;24.20;99.90
17715;DHT22;8977;50.902;4.314;2023-06-22T01:43:41;24.20;99.90
17715;DHT22;8977;50.902;4.314;2023-06-22T01:46:09;24.10;99.90
17715;DHT22;8977;50.902;4.314;2023-06-22T01:48:36;24.10;99.90
17715;DHT22;8977;50.902;4.314;2023-06-22T01:51:03;24.10;99.90
17715;DHT22;8977;50.902;4.314;2023-06-22T01:53:30;24.10;99.90
17715;DHT22;8977;50.902;4.314;2023-06-22T01:55:58;24.00;99.90
17715;DHT22;8977;50.902;4.314;2023-06-22T01:58:27;24.00;99.90
17715;DHT22;8977;50.902;4.314;2023-06-22T02:00:58;24.00;99.90
17715;DHT22;8977;50.902;4.314;2023-06-22T02:03:31;24.00;99.90
17715;DHT22;8977;50.902;4.314;2023-06-22T02:06:03;24.00;99.90
17715;DHT22;8977;50.902;4.314;2023-06-22T02:08:35;24.00;99.90
17715;DHT22;8977;50.902;4.314;2023-06-22T02:11:03;24.00;99.90
17715;DHT22;8977;50.902;4.314;2023-06-22T02:13:32;23.90;99.90
17715;DHT22;8977;50.902;4.314;2023-06-22T02:16:01;23.90;99.90
17715;DHT22;8977;50.902;4.314;2023-06-22T02:18:28;23.90;99.90
17715;DHT22;8977;50.902;4.314;2023-06-22T02:20:55;23.80;99.90
17715;DHT22;8977;50.902;4.314;2023-06-22T02:23:23;23.80;99.90
17715;DHT22;8977;50.902;4.314;2023-06-22T02:25:53;23.80;99.90
17715;DHT22;8977;50.902;4.314;2023-06-22T02:28:20;23.80;99.90
17715;DHT22;8977;50.902;4.314;2023-06-22T02:30:47;23.80;99.90
17715;DHT22;8977;50.902;4.314;2023-06-22T02:33:15;23.80;99.90
17715;DHT22;8977;50.902;4.314;2023-06-22T02:35:42;23.80;99.90
17715;DHT22;8977;50.902;4.314;2023-06-22T02:38:11;23.80;99.90
17715;DHT22;8977;50.902;4.314;2023-06-22T02:40:38;23.70;99.90
17715;DHT22;8977;50.902;4.314;2023-06-22T02:43:05;23.70;99.90
17715;DHT22;8977;50.902;4.314;2023-06-22T02:45:31;23.70;99.90
17715;DHT22;8977;50.902;4.314;2023-06-22T02:47:58;23.70;99.90
17715;DHT22;8977;50.902;4.314;2023-06-22T02:50:27;23.80;99.90
17715;DHT22;8977;50.902;4.314;2023-06-22T02:52:54;23.80;99.90
17715;DHT22;8977;50.902;4.314;2023-06-22T02:55:20;23.70;99.90
17715;DHT22;8977;50.902;4.314;2023-06-22T02:57:49;23.70;99.90
17715;DHT22;8977;50.902;4.314;2023-06-22T03:00:19;23.70;99.90
17715;DHT22;8977;50.902;4.314;2023-06-22T03:02:48;23.70;99.90
17715;DHT22;8977;50.902;4.314;2023-06-22T03:05:15;23.80;99.90
17715;DHT22;8977;50.902;4.314;2023-06-22T03:07:46;23.80;99.90
17715;DHT22;8977;50.902;4.314;2023-06-22T03:10:14;23.80;99.90
17715;DHT22;8977;50.902;4.314;2023-06-22T03:12:41;23.80;99.90
17715;DHT22;8977;50.902;4.314;2023-06-22T03:15:10;23.70;99.90
17715;DHT22;8977;50.902;4.314;2023-06-22T03:17:38;23.70;99.90
17715;DHT22;8977;50.902;4.314;2023-06-22T03:20:06;23.70;99.90
17715;DHT22;8977;50.902;4.314;2023-06-22T03:22:34;23.70;99.90
17715;DHT22;8977;50.902;4.314;2023-06-22T03:25:04;23.60;99.90
17715;DHT22;8977;50.902;4.314;2023-06-22T03:27:35;23.60;99.90
17715;DHT22;8977;50.902;4.314;2023-06-22T03:30:03;23.60;99.90
17715;DHT22;8977;50.902;4.314;2023-06-22T03:32:31;23.60;99.90
17715;DHT22;8977;50.902;4.314;2023-06-22T03:34:58;23.60;99.90
17715;DHT22;8977;50.902;4.314;2023-06-22T03:37:25;23.60;99.90
17715;DHT22;8977;50.902;4.314;2023-06-22T03:39:53;23.60;99.90
17715;DHT22;8977;50.902;4.314;2023-06-22T03:42:23;23.60;99.90
17715;DHT22;8977;50.902;4.314;2023-06-22T03:44:49;23.60;99.90
17715;DHT22;8977;50.902;4.314;2023-06-22T03:47:17;23.60;99.90
17715;DHT22;8977;50.902;4.314;2023-06-22T03:49:44;23.60;99.90
17715;DHT22;8977;50.902;4.314;2023-06-22T03:52:11;23.60;99.90
17715;DHT22;8977;50.902;4.314;2023-06-22T03:54:38;23.60;99.90
17715;DHT22;8977;50.902;4.314;2023-06-22T03:57:05;23.60;99.90
17715;DHT22;8977;50.902;4.314;2023-06-22T03:59:33;23.60;99.90
17715;DHT22;8977;50.902;4.314;2023-06-22T04:02:00;23.50;99.90
17715;DHT22;8977;50.902;4.314;2023-06-22T04:04:27;23.60;99.90
17715;DHT22;8977;50.902;4.314;2023-06-22T04:06:54;23.50;99.90
17715;DHT22;8977;50.902;4.314;2023-06-22T04:09:21;23.50;99.90
17715;DHT22;8977;50.902;4.314;2023-06-22T04:11:48;23.40;99.90
17715;DHT22;8977;50.902;4.314;2023-06-22T04:14:16;23.50;99.90
17715;DHT22;8977;50.902;4.314;2023-06-22T04:16:44;23.50;99.90
17715;DHT22;8977;50.902;4.314;2023-06-22T04:19:11;23.50;99.90
17715;DHT22;8977;50.902;4.314;2023-06-22T04:21:42;23.60;99.90
17715;DHT22;8977;50.902;4.314;2023-06-22T04:24:10;23.60;99.90
17715;DHT22;8977;50.902;4.314;2023-06-22T04:26:38;23.60;99.90
17715;DHT22;8977;50.902;4.314;2023-06-22T04:29:07;23.60;99.90
17715;DHT22;8977;50.902;4.314;2023-06-22T04:31:35;23.60;99.90
17715;DHT22;8977;50.902;4.314;2023-06-22T04:34:04;23.60;99.90
17715;DHT22;8977;50.902;4.314;2023-06-22T04:36:34;23.60;99.90
17715;DHT22;8977;50.902;4.314;2023-06-22T04:39:04;23.60;99.90
17715;DHT22;8977;50.902;4.314;2023-06-22T04:41:33;23.60;99.90
17715;DHT22;8977;50.902;4.314;2023-06-22T04:44:09;23.60;99.90
17715;DHT22;8977;50.902;4.314;2023-06-22T04:46:37;23.60;99.90
17715;DHT22;8977;50.902;4.314;2023-06-22T04:49:07;23.60;99.90
17715;DHT22;8977;50.902;4.314;2023-06-22T04:51:39;23.60;99.90
17715;DHT22;8977;50.902;4.314;2023-06-22T04:54:06;23.60;99.90
17715;DHT22;8977;50.902;4.314;2023-06-22T04:56:33;23.60;99.90
17715;DHT22;8977;50.902;4.314;2023-06-22T04:59:00;23.60;99.90
17715;DHT22;8977;50.902;4.314;2023-06-22T05:01:28;23.70;99.90
17715;DHT22;8977;50.902;4.314;2023-06-22T05:03:56;23.70;99.90
17715;DHT22;8977;50.902;4.314;2023-06-22T05:06:27;23.70;99.90
17715;DHT22;8977;50.902;4.314;2023-06-22T05:08:55;23.80;99.90
17715;DHT22;8977;50.902;4.314;2023-06-22T05:11:24;23.80;99.90
17715;DHT22;8977;50.902;4.314;2023-06-22T05:13:51;23.80;99.90
17715;DHT22;8977;50.902;4.314;2023-06-22T05:16:18;23.80;99.90
17715;DHT22;8977;50.902;4.314;2023-06-22T05:18:50;23.80;99.90
17715;DHT22;8977;50.902;4.314;2023-06-22T05:21:18;23.80;99.90
17715;DHT22;8977;50.902;4.314;2023-06-22T05:23:46;23.70;99.90
17715;DHT22;8977;50.902;4.314;2023-06-22T05:26:13;23.70;99.90
17715;DHT22;8977;50.902;4.314;2023-06-22T05:28:39;23.70;99.90
17715;DHT22;8977;50.902;4.314;2023-06-22T05:31:06;23.70;99.90
17715;DHT22;8977;50.902;4.314;2023-06-22T05:33:33;23.70;99.90
17715;DHT22;8977;50.902;4.314;2023-06-22T05:36:00;23.80;99.90
17715;DHT22;8977;50.902;4.314;2023-06-22T05:38:27;23.70;99.90
17715;DHT22;8977;50.902;4.314;2023-06-22T05:40:55;23.70;99.90
17715;DHT22;8977;50.902;4.314;2023-06-22T05:43:22;23.70;99.90
17715;DHT22;8977;50.902;4.314;2023-06-22T05:45:49;23.70;99.90
17715;DHT22;8977;50.902;4.314;2023-06-22T05:48:15;23.70;99.90
17715;DHT22;8977;50.902;4.314;2023-06-22T05:50:42;23.70;99.90
17715;DHT22;8977;50.902;4.314;2023-06-22T05:53:09;23.70;99.90
17715;DHT22;8977;50.902;4.314;2023-06-22T05:55:36;23.70;99.90
17715;DHT22;8977;50.902;4.314;2023-06-22T05:58:04;23.80;99.90
17715;DHT22;8977;50.902;4.314;2023-06-22T06:00:31;23.80;99.90
17715;DHT22;8977;50.902;4.314;2023-06-22T06:02:58;23.70;99.90
17715;DHT22;8977;50.902;4.314;2023-06-22T06:05:28;23.70;99.90
17715;DHT22;8977;50.902;4.314;2023-06-22T06:07:55;23.80;99.90
17715;DHT22;8977;50.902;4.314;2023-06-22T06:10:22;23.70;99.90
17715;DHT22;8977;50.902;4.314;2023-06-22T06:12:49;23.80;99.90
17715;DHT22;8977;50.902;4.314;2023-06-22T06:15:18;23.70;99.90
17715;DHT22;8977;50.902;4.314;2023-06-22T06:17:46;23.70;99.90
17715;DHT22;8977;50.902;4.314;2023-06-22T06:20:13;23.80;99.90
17715;DHT22;8977;50.902;4.314;2023-06-22T06:22:40;23.80;99.90
17715;DHT22;8977;50.902;4.314;2023-06-22T06:25:08;23.70;99.90
17715;DHT22;8977;50.902;4.314;2023-06-22T06:27:35;23.70;99.90
17715;DHT22;8977;50.902;4.314;2023-06-22T06:30:03;23.70;99.90
17715;DHT22;8977;50.902;4.314;2023-06-22T06:32:31;23.70;99.90
17715;DHT22;8977;50.902;4.314;2023-06-22T06:34:58;23.70;99.90
17715;DHT22;8977;50.902;4.314;2023-06-22T06:37:25;23.70;99.90
17715;DHT22;8977;50.902;4.314;2023-06-22T06:39:52;23.70;99.90
17715;DHT22;8977;50.902;4.314;2023-06-22T06:42:19;23.70;99.90
17715;DHT22;8977;50.902;4.314;2023-06-22T06:44:46;23.70;99.90
17715;DHT22;8977;50.902;4.314;2023-06-22T06:47:13;23.80;99.90
17715;DHT22;8977;50.902;4.314;2023-06-22T06:49:41;23.70;99.90
17715;DHT22;8977;50.902;4.314;2023-06-22T06:52:08;23.70;99.90
17715;DHT22;8977;50.902;4.314;2023-06-22T06:54:35;23.80;99.90
17715;DHT22;8977;50.902;4.314;2023-06-22T06:57:03;23.80;99.90
17715;DHT22;8977;50.902;4.314;2023-06-22T06:59:30;23.80;99.90
17715;DHT22;8977;50.902;4.314;2023-06-22T07:01:57;23.80;99.90
17715;DHT22;8977;50.902;4.314;2023-06-22T07:04:24;23.80;99.90
17715;DHT22;8977;50.902;4.314;2023-06-22T07:06:53;23.90;99.90
17715;DHT22;8977;50.902;4.314;2023-06-22T07:09:20;23.90;99.90
17715;DHT22;8977;50.902;4.314;2023-06-22T07:11:46;23.90;99.90
17715;DHT22;8977;50.902;4.314;2023-06-22T07:14:13;23.90;99.90
17715;DHT22;8977;50.902;4.314;2023-06-22T07:16:40;23.90;99.90
17715;DHT22;8977;50.902;4.314;2023-06-22T07:19:07;24.00;99.90
17715;DHT22;8977;50.902;4.314;2023-06-22T07:21:34;24.00;99.90
17715;DHT22;8977;50.902;4.314;2023-06-22T07:24:02;24.00;99.90
17715;DHT22;8977;50.902;4.314;2023-06-22T07:26:31;24.00;99.90
17715;DHT22;8977;50.902;4.314;2023-06-22T07:28:58;24.10;99.90
17715;DHT22;8977;50.902;4.314;2023-06-22T07:31:25;24.20;99.90
17715;DHT22;8977;50.902;4.314;2023-06-22T07:33:52;24.20;99.90
17715;DHT22;8977;50.902;4.314;2023-06-22T07:36:18;24.20;99.90
17715;DHT22;8977;50.902;4.314;2023-06-22T07:38:45;24.20;99.90
17715;DHT22;8977;50.902;4.314;2023-06-22T07:41:13;24.20;99.90
17715;DHT22;8977;50.902;4.314;2023-06-22T07:43:41;24.20;99.90
17715;DHT22;8977;50.902;4.314;2023-06-22T07:46:08;24.20;99.90
17715;DHT22;8977;50.902;4.314;2023-06-22T07:48:37;24.30;99.90
17715;DHT22;8977;50.902;4.314;2023-06-22T07:51:04;24.30;99.90
17715;DHT22;8977;50.902;4.314;2023-06-22T07:53:32;24.30;99.90
17715;DHT22;8977;50.902;4.314;2023-06-22T07:55:59;24.30;99.90
17715;DHT22;8977;50.902;4.314;2023-06-22T07:58:27;24.30;99.90
17715;DHT22;8977;50.902;4.314;2023-06-22T08:00:54;24.30;99.90
17715;DHT22;8977;50.902;4.314;2023-06-22T08:03:21;24.40;99.90
17715;DHT22;8977;50.902;4.314;2023-06-22T08:05:48;24.40;99.90
17715;DHT22;8977;50.902;4.314;2023-06-22T08:08:15;24.40;99.90
17715;DHT22;8977;50.902;4.314;2023-06-22T08:10:42;24.40;99.90
17715;DHT22;8977;50.902;4.314;2023-06-22T08:13:10;24.40;99.90
17715;DHT22;8977;50.902;4.314;2023-06-22T08:15:38;24.40;99.90
17715;DHT22;8977;50.902;4.314;2023-06-22T08:18:05;24.40;99.90
17715;DHT22;8977;50.902;4.314;2023-06-22T08:20:32;24.40;99.90
17715;DHT22;8977;50.902;4.314;2023-06-22T08:22:59;24.40;99.90
17715;DHT22;8977;50.902;4.314;2023-06-22T08:25:31;24.40;99.90
17715;DHT22;8977;50.902;4.314;2023-06-22T08:27:58;24.40;99.90
17715;DHT22;8977;50.902;4.314;2023-06-22T08:30:25;24.40;99.90
17715;DHT22;8977;50.902;4.314;2023-06-22T08:32:53;24.40;99.90
17715;DHT22;8977;50.902;4.314;2023-06-22T08:35:21;24.40;99.90
17715;DHT22;8977;50.902;4.314;2023-06-22T08:37:48;24.40;99.90
17715;DHT22;8977;50.902;4.314;2023-06-22T08:40:19;24.40;99.90
17715;DHT22;8977;50.902;4.314;2023-06-22T08:42:47;24.40;99.90
17715;DHT22;8977;50.902;4.314;2023-06-22T08:45:15;24.40;99.90
17715;DHT22;8977;50.902;4.314;2023-06-22T08:47:42;24.40;99.90
17715;DHT22;8977;50.902;4.314;2023-06-22T08:50:11;24.40;99.90
17715;DHT22;8977;50.902;4.314;2023-06-22T08:52:39;24.30;99.90
17715;DHT22;8977;50.902;4.314;2023-06-22T08:55:07;24.40;99.90
17715;DHT22;8977;50.902;4.314;2023-06-22T08:57:35;24.40;99.90
17715;DHT22;8977;50.902;4.314;2023-06-22T09:00:03;24.30;99.90
17715;DHT22;8977;50.902;4.314;2023-06-22T09:02:33;24.30;99.90
17715;DHT22;8977;50.902;4.314;2023-06-22T09:05:03;24.30;99.90
17715;DHT22;8977;50.902;4.314;2023-06-22T09:07:31;24.30;99.90
17715;DHT22;8977;50.902;4.314;2023-06-22T09:10:00;24.30;99.90
17715;DHT22;8977;50.902;4.314;2023-06-22T09:12:27;24.30;99.90
17715;DHT22;8977;50.902;4.314;2023-06-22T09:14:56;24.20;99.90
17715;DHT22;8977;50.902;4.314;2023-06-22T09:17:23;24.20;99.90
17715;DHT22;8977;50.902;4.314;2023-06-22T09:19:50;24.20;99.90
17715;DHT22;8977;50.902;4.314;2023-06-22T09:22:17;24.20;99.90
17715;DHT22;8977;50.902;4.314;2023-06-22T09:24:45;24.20;99.90
17715;DHT22;8977;50.902;4.314;2023-06-22T09:27:12;24.20;99.90
17715;DHT22;8977;50.902;4.314;2023-06-22T09:29:39;24.10;99.90
17715;DHT22;8977;50.902;4.314;2023-06-22T09:32:07;24.10;99.90
17715;DHT22;8977;50.902;4.314;2023-06-22T09:34:34;24.10;99.90
17715;DHT22;8977;50.902;4.314;2023-06-22T09:37:01;24.10;99.90
17715;DHT22;8977;50.902;4.314;2023-06-22T09:39:28;24.10;99.90
17715;DHT22;8977;50.902;4.314;2023-06-22T09:41:58;24.10;99.90
17715;DHT22;8977;50.902;4.314;2023-06-22T09:44:25;24.10;99.90
17715;DHT22;8977;50.902;4.314;2023-06-22T09:46:52;24.00;99.90
17715;DHT22;8977;50.902;4.314;2023-06-22T09:49:19;24.00;99.90
17715;DHT22;8977;50.902;4.314;2023-06-22T09:51:46;24.00;99.90
17715;DHT22;8977;50.902;4.314;2023-06-22T09:54:12;23.90;99.90
17715;DHT22;8977;50.902;4.314;2023-06-22T09:56:40;23.90;99.90
17715;DHT22;8977;50.902;4.314;2023-06-22T09:59:08;23.90;99.90
17715;DHT22;8977;50.902;4.314;2023-06-22T10:01:35;23.90;99.90
17715;DHT22;8977;50.902;4.314;2023-06-22T10:04:02;23.90;99.90
17715;DHT22;8977;50.902;4.314;2023-06-22T10:06:29;23.80;99.90
17715;DHT22;8977;50.902;4.314;2023-06-22T10:08:56;23.70;99.90
17715;DHT22;8977;50.902;4.314;2023-06-22T10:11:22;23.70;99.90
17715;DHT22;8977;50.902;4.314;2023-06-22T10:13:54;23.70;99.90
17715;DHT22;8977;50.902;4.314;2023-06-22T10:16:24;23.60;99.90
17715;DHT22;8977;50.902;4.314;2023-06-22T10:18:56;23.60;99.90
17715;DHT22;8977;50.902;4.314;2023-06-22T10:21:23;23.60;99.90
17715;DHT22;8977;50.902;4.314;2023-06-22T10:23:51;23.50;99.90
17715;DHT22;8977;50.902;4.314;2023-06-22T10:26:18;23.50;99.90
17715;DHT22;8977;50.902;4.314;2023-06-22T10:28:45;23.40;99.90
17715;DHT22;8977;50.902;4.314;2023-06-22T10:31:12;23.30;99.90
17715;DHT22;8977;50.902;4.314;2023-06-22T10:33:41;23.30;99.90
17715;DHT22;8977;50.902;4.314;2023-06-22T10:36:09;23.30;99.90
17715;DHT22;8977;50.902;4.314;2023-06-22T10:38:36;23.20;99.90
17715;DHT22;8977;50.902;4.314;2023-06-22T10:41:03;23.20;99.90
17715;DHT22;8977;50.902;4.314;2023-06-22T10:43:32;23.20;99.90
17715;DHT22;8977;50.902;4.314;2023-06-22T10:45:59;23.20;99.90
17715;DHT22;8977;50.902;4.314;2023-06-22T10:48:26;23.30;99.90
17715;DHT22;8977;50.902;4.314;2023-06-22T10:50:54;23.30;99.90
17715;DHT22;8977;50.902;4.314;2023-06-22T10:53:21;23.30;99.90
17715;DHT22;8977;50.902;4.314;2023-06-22T10:55:48;23.30;99.90
17715;DHT22;8977;50.902;4.314;2023-06-22T10:58:14;23.30;99.90
17715;DHT22;8977;50.902;4.314;2023-06-22T11:00:41;23.30;99.90
17715;DHT22;8977;50.902;4.314;2023-06-22T11:03:08;23.30;99.90
17715;DHT22;8977;50.902;4.314;2023-06-22T11:05:35;23.30;99.90
17715;DHT22;8977;50.902;4.314;2023-06-22T11:08:04;23.30;99.90
17715;DHT22;8977;50.902;4.314;2023-06-22T11:10:30;23.30;99.90
17715;DHT22;8977;50.902;4.314;2023-06-22T11:12:57;23.30;99.90
17715;DHT22;8977;50.902;4.314;2023-06-22T11:15:24;23.30;99.90
17715;DHT22;8977;50.902;4.314;2023-06-22T11:17:51;23.30;99.90
17715;DHT22;8977;50.902;4.314;2023-06-22T11:20:18;23.30;99.90
17715;DHT22;8977;50.902;4.314;2023-06-22T11:22:45;23.30;99.90
17715;DHT22;8977;50.902;4.314;2023-06-22T11:25:13;23.30;99.90
17715;DHT22;8977;50.902;4.314;2023-06-22T11:27:40;23.30;99.90
17715;DHT22;8977;50.902;4.314;2023-06-22T11:30:08;23.30;99.90
17715;DHT22;8977;50.902;4.314;2023-06-22T11:32:35;23.40;99.90
17715;DHT22;8977;50.902;4.314;2023-06-22T11:35:02;23.30;99.90
17715;DHT22;8977;50.902;4.314;2023-06-22T11:37:29;23.30;99.90
17715;DHT22;8977;50.902;4.314;2023-06-22T11:39:56;23.30;99.90
17715;DHT22;8977;50.902;4.314;2023-06-22T11:42:25;23.20;99.90
17715;DHT22;8977;50.902;4.314;2023-06-22T11:44:52;23.20;99.90
17715;DHT22;8977;50.902;4.314;2023-06-22T11:47:19;23.20;99.90
17715;DHT22;8977;50.902;4.314;2023-06-22T11:49:45;23.20;99.90
17715;DHT22;8977;50.902;4.314;2023-06-22T11:52:12;23.20;99.90
17715;DHT22;8977;50.902;4.314;2023-06-22T11:54:39;23.20;99.90
17715;DHT22;8977;50.902;4.314;2023-06-22T11:57:06;23.20;99.90
17715;DHT22;8977;50.902;4.314;2023-06-22T11:59:35;23.20;99.90
17715;DHT22;8977;50.902;4.314;2023-06-22T12:02:02;23.20;99.90
17715;DHT22;8977;50.902;4.314;2023-06-22T12:04:29;23.20;99.90
17715;DHT22;8977;50.902;4.314;2023-06-22T12:06:56;23.20;99.90
17715;DHT22;8977;50.902;4.314;2023-06-22T12:09:24;23.20;99.90
17715;DHT22;8977;50.902;4.314;2023-06-22T12:11:50;23.20;99.90
17715;DHT22;8977;50.902;4.314;2023-06-22T12:14:17;23.20;99.90
17715;DHT22;8977;50.902;4.314;2023-06-22T12:16:45;23.20;99.90
17715;DHT22;8977;50.902;4.314;2023-06-22T12:19:12;23.20;99.90
17715;DHT22;8977;50.902;4.314;2023-06-22T12:21:39;23.20;99.90
17715;DHT22;8977;50.902;4.314;2023-06-22T12:24:07;23.30;99.90
17715;DHT22;8977;50.902;4.314;2023-06-22T12:26:33;23.30;99.90
17715;DHT22;8977;50.902;4.314;2023-06-22T12:29:00;23.20;99.90
17715;DHT22;8977;50.902;4.314;2023-06-22T12:31:27;23.20;99.90
17715;DHT22;8977;50.902;4.314;2023-06-22T12:33:55;23.30;99.90
17715;DHT22;8977;50.902;4.314;2023-06-22T12:36:22;23.30;99.90
17715;DHT22;8977;50.902;4.314;2023-06-22T12:38:50;23.30;99.90
17715;DHT22;8977;50.902;4.314;2023-06-22T12:41:17;23.30;99.90
17715;DHT22;8977;50.902;4.314;2023-06-22T12:43:44;23.30;99.90
17715;DHT22;8977;50.902;4.314;2023-06-22T12:46:11;23.30;99.90
17715;DHT22;8977;50.902;4.314;2023-06-22T12:48:38;23.30;99.90
17715;DHT22;8977;50.902;4.314;2023-06-22T12:51:09;23.30;99.90
17715;DHT22;8977;50.902;4.314;2023-06-22T12:53:36;23.30;99.90
17715;DHT22;8977;50.902;4.314;2023-06-22T12:56:03;23.30;99.90
17715;DHT22;8977;50.902;4.314;2023-06-22T12:58:30;23.30;99.90
17715;DHT22;8977;50.902;4.314;2023-06-22T13:00:57;23.30;99.90
17715;DHT22;8977;50.902;4.314;2023-06-22T13:03:24;23.20;99.90
17715;DHT22;8977;50.902;4.314;2023-06-22T13:05:53;23.30;99.90
17715;DHT22;8977;50.902;4.314;2023-06-22T13:08:21;23.20;99.90
17715;DHT22;8977;50.902;4.314;2023-06-22T13:10:48;23.20;99.90
17715;DHT22;8977;50.902;4.314;2023-06-22T13:13:15;23.20;99.90
17715;DHT22;8977;50.902;4.314;2023-06-22T13:15:42;23.20;99.90
17715;DHT22;8977;50.902;4.314;2023-06-22T13:18:08;23.20;99.90
17715;DHT22;8977;50.902;4.314;2023-06-22T13:20:35;23.10;99.90
17715;DHT22;8977;50.902;4.314;2023-06-22T13:23:02;23.20;99.90
17715;DHT22;8977;50.902;4.314;2023-06-22T13:25:30;23.10;99.90
17715;DHT22;8977;50.902;4.314;2023-06-22T13:27:57;23.10;99.90
17715;DHT22;8977;50.902;4.314;2023-06-22T13:30:24;23.10;99.90
17715;DHT22;8977;50.902;4.314;2023-06-22T13:32:51;23.10;99.90
17715;DHT22;8977;50.902;4.314;2023-06-22T13:35:18;23.10;99.90
17715;DHT22;8977;50.902;4.314;2023-06-22T13:37:45;23.10;99.90
17715;DHT22;8977;50.902;4.314;2023-06-22T13:40:11;23.10;99.90
17715;DHT22;8977;50.902;4.314;2023-06-22T13:42:40;23.10;99.90
17715;DHT22;8977;50.902;4.314;2023-06-22T13:45:07;23.10;99.90
17715;DHT22;8977;50.902;4.314;2023-06-22T13:47:34;23.00;99.90
17715;DHT22;8977;50.902;4.314;2023-06-22T13:50:01;23.00;99.90
17715;DHT22;8977;50.902;4.314;2023-06-22T13:52:28;23.00;99.90
17715;DHT22;8977;50.902;4.314;2023-06-22T13:54:55;23.00;99.90
17715;DHT22;8977;50.902;4.314;2023-06-22T13:57:22;23.00;99.90
17715;DHT22;8977;50.902;4.314;2023-06-22T13:59:50;23.00;99.90
17715;DHT22;8977;50.902;4.314;2023-06-22T14:02:17;23.00;99.90
17715;DHT22;8977;50.902;4.314;2023-06-22T14:04:44;23.00;99.90
17715;DHT22;8977;50.902;4.314;2023-06-22T14:07:11;23.00;99.90
17715;DHT22;8977;50.902;4.314;2023-06-22T14:09:37;23.00;99.90
17715;DHT22;8977;50.902;4.314;2023-06-22T14:12:05;23.00;99.90
17715;DHT22;8977;50.902;4.314;2023-06-22T14:14:32;22.90;99.90
17715;DHT22;8977;50.902;4.314;2023-06-22T14:17:00;22.90;99.90
17715;DHT22;8977;50.902;4.314;2023-06-22T14:19:27;22.90;99.90
17715;DHT22;8977;50.902;4.314;2023-06-22T14:21:54;22.90;99.90
17715;DHT22;8977;50.902;4.314;2023-06-22T14:24:22;22.90;99.90
17715;DHT22;8977;50.902;4.314;2023-06-22T14:26:49;22.90;99.90
17715;DHT22;8977;50.902;4.314;2023-06-22T14:29:16;22.90;99.90
17715;DHT22;8977;50.902;4.314;2023-06-22T14:31:44;22.80;99.90
17715;DHT22;8977;50.902;4.314;2023-06-22T14:34:13;22.80;99.90
17715;DHT22;8977;50.902;4.314;2023-06-22T14:36:40;22.80;99.90
17715;DHT22;8977;50.902;4.314;2023-06-22T14:39:07;22.80;99.90
17715;DHT22;8977;50.902;4.314;2023-06-22T14:41:34;22.90;99.90
17715;DHT22;8977;50.902;4.314;2023-06-22T14:44:01;22.90;99.90
17715;DHT22;8977;50.902;4.314;2023-06-22T14:46:28;22.80;99.90
17715;DHT22;8977;50.902;4.314;2023-06-22T14:48:55;22.90;99.90
17715;DHT22;8977;50.902;4.314;2023-06-22T14:51:23;22.90;99.90
17715;DHT22;8977;50.902;4.314;2023-06-22T14:53:50;22.90;99.90
17715;DHT22;8977;50.902;4.314;2023-06-22T14:56:17;23.00;99.90
17715;DHT22;8977;50.902;4.314;2023-06-22T14:58:44;22.90;99.90
17715;DHT22;8977;50.902;4.314;2023-06-22T15:01:11;22.90;99.90
17715;DHT22;8977;50.902;4.314;2023-06-22T15:03:38;22.90;99.90
17715;DHT22;8977;50.902;4.314;2023-06-22T15:06:05;22.90;99.90
17715;DHT22;8977;50.902;4.314;2023-06-22T15:08:34;23.00;99.90
17715;DHT22;8977;50.902;4.314;2023-06-22T15:11:01;23.00;99.90
17715;DHT22;8977;50.902;4.314;2023-06-22T15:13:29;23.00;99.90
17715;DHT22;8977;50.902;4.314;2023-06-22T15:15:58;23.00;99.90
17715;DHT22;8977;50.902;4.314;2023-06-22T15:18:25;23.00;99.90
17715;DHT22;8977;50.902;4.314;2023-06-22T15:20:51;23.00;99.90
17715;DHT22;8977;50.902;4.314;2023-06-22T15:23:18;23.00;99.90
17715;DHT22;8977;50.902;4.314;2023-06-22T15:25:47;23.00;99.90
17715;DHT22;8977;50.902;4.314;2023-06-22T15:28:14;23.00;99.90
17715;DHT22;8977;50.902;4.314;2023-06-22T15:30:41;23.00;99.90
17715;DHT22;8977;50.902;4.314;2023-06-22T15:33:07;23.00;99.90
17715;DHT22;8977;50.902;4.314;2023-06-22T15:35:35;23.00;99.90
17715;DHT22;8977;50.902;4.314;2023-06-22T15:38:02;23.10;99.90
17715;DHT22;8977;50.902;4.314;2023-06-22T15:40:29;23.10;99.90
17715;DHT22;8977;50.902;4.314;2023-06-22T15:42:57;23.10;99.90
17715;DHT22;8977;50.902;4.314;2023-06-22T15:45:24;23.10;99.90
17715;DHT22;8977;50.902;4.314;2023-06-22T15:47:51;23.10;99.90
17715;DHT22;8977;50.902;4.314;2023-06-22T15:50:18;23.10;99.90